sensor_id;sensor_type;location;lat;lon;timestamp;pressure;altitude;pressure_sealevel;temperature;humidity
24486;BME280;13449;49.374;8.584;2023-02-04T00:00:13;101866.22;;;9.55;86.18
24486;BME280;13449;49.374;8.584;2023-02-04T00:02:41;101857.31;;;9.53;86.09
24486;BME280;13449;49.374;8.584;2023-02-04T00:05:08;101858.19;;;9.53;85.82
24486;BME280;13449;49.374;8.584;2023-02-04T00:07:35;101852.47;;;9.47;86.37
24486;BME280;13449;49.374;8.584;2023-02-04T00:10:02;101856.06;;;9.47;85.94
24486;BME280;13449;49.374;8.584;2023-02-04T00:12:31;101863.78;;;9.42;86.50
24486;BME280;13449;49.374;8.584;2023-02-04T00:14:59;101867.50;;;9.41;86.14
24486;BME280;13449;49.374;8.584;2023-02-04T00:17:26;101862.94;;;9.42;86.05
24486;BME280;13449;49.374;8.584;2023-02-04T00:19:52;101871.66;;;9.45;85.92
24486;BME280;13449;49.374;8.584;2023-02-04T00:22:19;101885.44;;;9.44;85.92
24486;BME280;13449;49.374;8.584;2023-02-04T00:24:46;101882.44;;;9.37;86.50
24486;BME280;13449;49.374;8.584;2023-02-04T00:27:15;101881.84;;;9.34;87.26
24486;BME280;13449;49.374;8.584;2023-02-04T00:29:42;101880.44;;;9.30;87.69
24486;BME280;13449;49.374;8.584;2023-02-04T00:32:08;101884.28;;;9.27;88.18
24486;BME280;13449;49.374;8.584;2023-02-04T00:34:35;101893.31;;;9.28;88.58
24486;BME280;13449;49.374;8.584;2023-02-04T00:37:01;101887.16;;;9.26;89.08
24486;BME280;13449;49.374;8.584;2023-02-04T00:39:30;101892.31;;;9.29;89.38
24486;BME280;13449;49.374;8.584;2023-02-04T00:41:56;101897.59;;;9.30;89.30
24486;BME280;13449;49.374;8.584;2023-02-04T00:44:23;101911.50;;;9.27;89.03
24486;BME280;13449;49.374;8.584;2023-02-04T00:46:49;101908.06;;;9.25;89.20
24486;BME280;13449;49.374;8.584;2023-02-04T00:49:16;101905.66;;;9.22;89.09
24486;BME280;13449;49.374;8.584;2023-02-04T00:51:47;101904.03;;;9.19;89.08
24486;BME280;13449;49.374;8.584;2023-02-04T00:54:13;101911.50;;;9.17;88.42
24486;BME280;13449;49.374;8.584;2023-02-04T00:56:42;101915.22;;;9.16;88.52
24486;BME280;13449;49.374;8.584;2023-02-04T00:59:09;101916.94;;;9.17;87.53
24486;BME280;13449;49.374;8.584;2023-02-04T01:01:36;101914.06;;;9.19;87.08
24486;BME280;13449;49.374;8.584;2023-02-04T01:04:03;101909.78;;;9.16;87.04
24486;BME280;13449;49.374;8.584;2023-02-04T01:06:30;101914.34;;;9.16;86.81
24486;BME280;13449;49.374;8.584;2023-02-04T01:08:57;101910.19;;;9.12;86.96
24486;BME280;13449;49.374;8.584;2023-02-04T01:11:27;101915.63;;;9.12;86.58
24486;BME280;13449;49.374;8.584;2023-02-04T01:13:56;101910.34;;;9.10;87.04
24486;BME280;13449;49.374;8.584;2023-02-04T01:16:25;101906.03;;;9.08;87.17
24486;BME280;13449;49.374;8.584;2023-02-04T01:18:51;101917.22;;;9.05;87.20
24486;BME280;13449;49.374;8.584;2023-02-04T01:21:22;101920.09;;;9.03;86.96
24486;BME280;13449;49.374;8.584;2023-02-04T01:23:49;101934.28;;;9.07;86.09
24486;BME280;13449;49.374;8.584;2023-02-04T01:26:17;101930.69;;;9.06;86.15
24486;BME280;13449;49.374;8.584;2023-02-04T01:28:44;101933.13;;;9.09;85.22
24486;BME280;13449;49.374;8.584;2023-02-04T01:31:13;101935.97;;;9.08;85.26
24486;BME280;13449;49.374;8.584;2023-02-04T01:33:40;101932.53;;;9.06;85.92
24486;BME280;13449;49.374;8.584;2023-02-04T01:36:07;101943.84;;;9.01;86.06
24486;BME280;13449;49.374;8.584;2023-02-04T01:38:36;101939.53;;;8.99;85.89
24486;BME280;13449;49.374;8.584;2023-02-04T01:41:03;101942.56;;;8.96;86.34
24486;BME280;13449;49.374;8.584;2023-02-04T01:43:30;101941.38;;;8.89;87.18
24486;BME280;13449;49.374;8.584;2023-02-04T01:45:58;101942.38;;;8.88;86.96
24486;BME280;13449;49.374;8.584;2023-02-04T01:48:24;101939.22;;;8.83;87.50
24486;BME280;13449;49.374;8.584;2023-02-04T01:50:53;101945.94;;;8.79;87.66
24486;BME280;13449;49.374;8.584;2023-02-04T01:53:24;101953.63;;;8.73;87.53
24486;BME280;13449;49.374;8.584;2023-02-04T01:55:51;101958.66;;;8.78;86.57
24486;BME280;13449;49.374;8.584;2023-02-04T01:58:18;101952.63;;;8.74;86.87
24486;BME280;13449;49.374;8.584;2023-02-04T02:00:44;101950.31;;;8.70;87.51
24486;BME280;13449;49.374;8.584;2023-02-04T02:03:11;101950.19;;;8.71;86.11
24486;BME280;13449;49.374;8.584;2023-02-04T02:08:07;101956.63;;;8.70;86.04
24486;BME280;13449;49.374;8.584;2023-02-04T02:10:34;101959.50;;;8.69;86.81
24486;BME280;13449;49.374;8.584;2023-02-04T02:13:04;101968.25;;;8.72;84.40
24486;BME280;13449;49.374;8.584;2023-02-04T02:15:31;101964.78;;;8.70;84.28
24486;BME280;13449;49.374;8.584;2023-02-04T02:17:59;101966.94;;;8.67;84.29
24486;BME280;13449;49.374;8.584;2023-02-04T02:20:26;101968.78;;;8.66;84.84
24486;BME280;13449;49.374;8.584;2023-02-04T02:25:50;101963.78;;;8.62;85.36
24486;BME280;13449;49.374;8.584;2023-02-04T02:28:21;101973.78;;;8.61;86.37
24486;BME280;13449;49.374;8.584;2023-02-04T02:30:49;101963.44;;;8.55;87.19
24486;BME280;13449;49.374;8.584;2023-02-04T02:33:18;101964.72;;;8.51;87.36
24486;BME280;13449;49.374;8.584;2023-02-04T02:35:46;101967.84;;;8.47;88.15
24486;BME280;13449;49.374;8.584;2023-02-04T02:38:16;101971.84;;;8.43;88.53
24486;BME280;13449;49.374;8.584;2023-02-04T02:40:44;101970.38;;;8.39;88.78
24486;BME280;13449;49.374;8.584;2023-02-04T02:43:19;101976.09;;;8.36;89.68
24486;BME280;13449;49.374;8.584;2023-02-04T02:45:49;101976.50;;;8.31;90.80
24486;BME280;13449;49.374;8.584;2023-02-04T02:48:16;101980.31;;;8.29;93.08
24486;BME280;13449;49.374;8.584;2023-02-04T02:50:46;101986.00;;;8.25;93.02
24486;BME280;13449;49.374;8.584;2023-02-04T02:53:18;101982.84;;;8.20;95.63
24486;BME280;13449;49.374;8.584;2023-02-04T02:55:45;101985.38;;;8.12;95.57
24486;BME280;13449;49.374;8.584;2023-02-04T02:58:23;101985.03;;;8.06;95.54
24486;BME280;13449;49.374;8.584;2023-02-04T03:00:51;101991.00;;;8.00;96.31
24486;BME280;13449;49.374;8.584;2023-02-04T03:03:21;101991.38;;;7.95;96.54
24486;BME280;13449;49.374;8.584;2023-02-04T03:05:53;101995.88;;;7.85;98.58
24486;BME280;13449;49.374;8.584;2023-02-04T03:08:21;102008.16;;;7.80;98.74
24486;BME280;13449;49.374;8.584;2023-02-04T03:10:48;102003.22;;;7.73;99.78
24486;BME280;13449;49.374;8.584;2023-02-04T03:13:15;101996.59;;;7.66;100.00
24486;BME280;13449;49.374;8.584;2023-02-04T03:15:44;101992.56;;;7.61;100.00
24486;BME280;13449;49.374;8.584;2023-02-04T03:18:14;101992.19;;;7.54;100.00
24486;BME280;13449;49.374;8.584;2023-02-04T03:20:41;101997.78;;;7.53;100.00
24486;BME280;13449;49.374;8.584;2023-02-04T03:23:11;102007.28;;;7.47;100.00
24486;BME280;13449;49.374;8.584;2023-02-04T03:25:37;102014.69;;;7.45;100.00
24486;BME280;13449;49.374;8.584;2023-02-04T03:28:04;102011.22;;;7.43;100.00
24486;BME280;13449;49.374;8.584;2023-02-04T03:30:31;102020.63;;;7.39;100.00
24486;BME280;13449;49.374;8.584;2023-02-04T03:32:58;102026.31;;;7.36;100.00
24486;BME280;13449;49.374;8.584;2023-02-04T03:35:25;102022.88;;;7.34;100.00
24486;BME280;13449;49.374;8.584;2023-02-04T03:37:51;102023.09;;;7.31;100.00
24486;BME280;13449;49.374;8.584;2023-02-04T03:40:18;102023.38;;;7.28;100.00
24486;BME280;13449;49.374;8.584;2023-02-04T03:42:44;102024.50;;;7.25;100.00
24486;BME280;13449;49.374;8.584;2023-02-04T03:45:13;102029.19;;;7.23;100.00
24486;BME280;13449;49.374;8.584;2023-02-04T03:47:40;102020.19;;;7.23;100.00
24486;BME280;13449;49.374;8.584;2023-02-04T03:50:06;102031.03;;;7.23;100.00
24486;BME280;13449;49.374;8.584;2023-02-04T03:52:33;102032.03;;;7.22;100.00
24486;BME280;13449;49.374;8.584;2023-02-04T03:54:59;102023.13;;;7.20;100.00
24486;BME280;13449;49.374;8.584;2023-02-04T03:57:25;102021.28;;;7.20;100.00
24486;BME280;13449;49.374;8.584;2023-02-04T03:59:52;102033.25;;;7.18;100.00
24486;BME280;13449;49.374;8.584;2023-02-04T04:02:18;102038.44;;;7.21;100.00
24486;BME280;13449;49.374;8.584;2023-02-04T04:04:45;102044.09;;;7.18;100.00
24486;BME280;13449;49.374;8.584;2023-02-04T04:07:13;102049.53;;;7.18;100.00
24486;BME280;13449;49.374;8.584;2023-02-04T04:09:39;102047.81;;;7.17;100.00
24486;BME280;13449;49.374;8.584;2023-02-04T04:12:08;102057.69;;;7.18;100.00
24486;BME280;13449;49.374;8.584;2023-02-04T04:14:40;102057.94;;;7.15;100.00
24486;BME280;13449;49.374;8.584;2023-02-04T04:17:06;102059.88;;;7.13;100.00
24486;BME280;13449;49.374;8.584;2023-02-04T04:19:33;102068.03;;;7.13;100.00
24486;BME280;13449;49.374;8.584;2023-02-04T04:22:05;102065.19;;;7.14;100.00
24486;BME280;13449;49.374;8.584;2023-02-04T04:24:35;102062.84;;;7.10;100.00
24486;BME280;13449;49.374;8.584;2023-02-04T04:27:15;102071.13;;;7.08;100.00
24486;BME280;13449;49.374;8.584;2023-02-04T04:29:44;102073.84;;;7.08;100.00
24486;BME280;13449;49.374;8.584;2023-02-04T04:32:10;102075.44;;;7.11;100.00
24486;BME280;13449;49.374;8.584;2023-02-04T04:34:37;102073.72;;;7.10;100.00
24486;BME280;13449;49.374;8.584;2023-02-04T04:37:04;102075.69;;;7.08;100.00
24486;BME280;13449;49.374;8.584;2023-02-04T04:39:33;102085.41;;;7.10;100.00
24486;BME280;13449;49.374;8.584;2023-02-04T04:42:02;102073.97;;;7.07;100.00
24486;BME280;13449;49.374;8.584;2023-02-04T04:44:29;102075.94;;;7.05;100.00
24486;BME280;13449;49.374;8.584;2023-02-04T04:46:56;102085.19;;;7.02;100.00
24486;BME280;13449;49.374;8.584;2023-02-04T04:49:22;102081.59;;;7.02;100.00
24486;BME280;13449;49.374;8.584;2023-02-04T04:51:49;102093.47;;;7.01;100.00
24486;BME280;13449;49.374;8.584;2023-02-04T04:54:16;102092.69;;;6.99;100.00
24486;BME280;13449;49.374;8.584;2023-02-04T04:56:42;102100.72;;;7.00;100.00
24486;BME280;13449;49.374;8.584;2023-02-04T04:59:12;102093.69;;;6.98;100.00
24486;BME280;13449;49.374;8.584;2023-02-04T05:01:39;102093.56;;;6.99;100.00
24486;BME280;13449;49.374;8.584;2023-02-04T05:04:06;102095.56;;;6.97;100.00
24486;BME280;13449;49.374;8.584;2023-02-04T05:06:32;102092.94;;;6.96;100.00
24486;BME280;13449;49.374;8.584;2023-02-04T05:09:02;102091.97;;;6.97;100.00
24486;BME280;13449;49.374;8.584;2023-02-04T05:11:32;102089.75;;;6.91;100.00
24486;BME280;13449;49.374;8.584;2023-02-04T05:14:07;102096.38;;;6.87;100.00
24486;BME280;13449;49.374;8.584;2023-02-04T05:16:33;102101.19;;;6.83;100.00
24486;BME280;13449;49.374;8.584;2023-02-04T05:19:02;102089.63;;;6.81;100.00
24486;BME280;13449;49.374;8.584;2023-02-04T05:21:29;102096.16;;;6.78;100.00
24486;BME280;13449;49.374;8.584;2023-02-04T05:23:57;102095.28;;;6.78;100.00
24486;BME280;13449;49.374;8.584;2023-02-04T05:26:24;102097.88;;;6.79;100.00
24486;BME280;13449;49.374;8.584;2023-02-04T05:28:57;102092.81;;;6.75;100.00
24486;BME280;13449;49.374;8.584;2023-02-04T05:31:27;102100.31;;;6.71;100.00
24486;BME280;13449;49.374;8.584;2023-02-04T05:33:54;102104.03;;;6.70;100.00
24486;BME280;13449;49.374;8.584;2023-02-04T05:36:21;102108.59;;;6.70;100.00
24486;BME280;13449;49.374;8.584;2023-02-04T05:38:48;102117.06;;;6.65;100.00
24486;BME280;13449;49.374;8.584;2023-02-04T05:41:14;102118.19;;;6.63;100.00
24486;BME280;13449;49.374;8.584;2023-02-04T05:43:41;102123.63;;;6.63;100.00
24486;BME280;13449;49.374;8.584;2023-02-04T05:46:08;102124.69;;;6.60;100.00
24486;BME280;13449;49.374;8.584;2023-02-04T05:48:35;102121.38;;;6.57;100.00
24486;BME280;13449;49.374;8.584;2023-02-04T05:51:01;102129.91;;;6.63;100.00
24486;BME280;13449;49.374;8.584;2023-02-04T05:53:28;102131.84;;;6.61;100.00
24486;BME280;13449;49.374;8.584;2023-02-04T05:55:57;102144.53;;;6.61;100.00
24486;BME280;13449;49.374;8.584;2023-02-04T05:58:23;102146.63;;;6.57;100.00
24486;BME280;13449;49.374;8.584;2023-02-04T06:00:50;102148.59;;;6.55;100.00
24486;BME280;13449;49.374;8.584;2023-02-04T06:03:20;102156.72;;;6.55;100.00
24486;BME280;13449;49.374;8.584;2023-02-04T06:05:47;102157.94;;;6.51;100.00
24486;BME280;13449;49.374;8.584;2023-02-04T06:08:17;102155.09;;;6.53;100.00
24486;BME280;13449;49.374;8.584;2023-02-04T06:10:44;102155.72;;;6.56;100.00
24486;BME280;13449;49.374;8.584;2023-02-04T06:13:10;102159.06;;;6.60;100.00
24486;BME280;13449;49.374;8.584;2023-02-04T06:15:37;102164.13;;;6.64;99.66
24486;BME280;13449;49.374;8.584;2023-02-04T06:18:03;102157.00;;;6.63;99.09
24486;BME280;13449;49.374;8.584;2023-02-04T06:20:32;102157.00;;;6.63;98.70
24486;BME280;13449;49.374;8.584;2023-02-04T06:22:59;102166.34;;;6.59;98.63
24486;BME280;13449;49.374;8.584;2023-02-04T06:25:26;102176.69;;;6.54;99.01
24486;BME280;13449;49.374;8.584;2023-02-04T06:28:05;102184.28;;;6.49;98.71
24486;BME280;13449;49.374;8.584;2023-02-04T06:30:32;102195.38;;;6.46;99.19
24486;BME280;13449;49.374;8.584;2023-02-04T06:32:59;102193.75;;;6.44;98.80
24486;BME280;13449;49.374;8.584;2023-02-04T06:35:25;102186.22;;;6.36;99.13
24486;BME280;13449;49.374;8.584;2023-02-04T06:37:52;102192.09;;;6.30;100.00
24486;BME280;13449;49.374;8.584;2023-02-04T06:40:18;102195.38;;;6.22;100.00
24486;BME280;13449;49.374;8.584;2023-02-04T06:42:44;102209.41;;;6.16;100.00
24486;BME280;13449;49.374;8.584;2023-02-04T06:45:11;102205.41;;;6.09;100.00
24486;BME280;13449;49.374;8.584;2023-02-04T06:47:37;102193.19;;;6.04;100.00
24486;BME280;13449;49.374;8.584;2023-02-04T06:50:04;102198.34;;;5.96;100.00
24486;BME280;13449;49.374;8.584;2023-02-04T06:52:31;102205.69;;;5.94;100.00
24486;BME280;13449;49.374;8.584;2023-02-04T06:54:58;102198.78;;;5.90;100.00
24486;BME280;13449;49.374;8.584;2023-02-04T06:57:24;102208.06;;;5.85;100.00
24486;BME280;13449;49.374;8.584;2023-02-04T06:59:51;102211.00;;;5.82;100.00
24486;BME280;13449;49.374;8.584;2023-02-04T07:02:17;102218.03;;;5.85;100.00
24486;BME280;13449;49.374;8.584;2023-02-04T07:04:44;102225.50;;;5.81;100.00
24486;BME280;13449;49.374;8.584;2023-02-04T07:07:15;102219.91;;;5.84;100.00
24486;BME280;13449;49.374;8.584;2023-02-04T07:09:44;102231.03;;;5.93;100.00
24486;BME280;13449;49.374;8.584;2023-02-04T07:12:10;102218.38;;;5.93;100.00
24486;BME280;13449;49.374;8.584;2023-02-04T07:14:37;102225.63;;;5.93;100.00
24486;BME280;13449;49.374;8.584;2023-02-04T07:17:03;102236.34;;;5.94;100.00
24486;BME280;13449;49.374;8.584;2023-02-04T07:19:30;102230.84;;;5.96;100.00
24486;BME280;13449;49.374;8.584;2023-02-04T07:21:59;102248.44;;;6.01;100.00
24486;BME280;13449;49.374;8.584;2023-02-04T07:24:30;102251.78;;;6.05;100.00
24486;BME280;13449;49.374;8.584;2023-02-04T07:26:59;102255.91;;;6.10;100.00
24486;BME280;13449;49.374;8.584;2023-02-04T07:29:28;102260.22;;;6.13;100.00
24486;BME280;13449;49.374;8.584;2023-02-04T07:32:03;102262.59;;;6.17;100.00
24486;BME280;13449;49.374;8.584;2023-02-04T07:34:30;102256.69;;;6.23;100.00
24486;BME280;13449;49.374;8.584;2023-02-04T07:37:00;102260.56;;;6.32;100.00
24486;BME280;13449;49.374;8.584;2023-02-04T07:39:29;102262.94;;;6.37;99.67
24486;BME280;13449;49.374;8.584;2023-02-04T07:41:55;102275.16;;;6.42;100.00
24486;BME280;13449;49.374;8.584;2023-02-04T07:44:26;102271.25;;;6.46;100.00
24486;BME280;13449;49.374;8.584;2023-02-04T07:46:53;102272.41;;;6.55;99.38
24486;BME280;13449;49.374;8.584;2023-02-04T07:49:19;102280.91;;;6.61;98.37
24486;BME280;13449;49.374;8.584;2023-02-04T07:51:46;102284.88;;;6.68;96.24
24486;BME280;13449;49.374;8.584;2023-02-04T07:54:12;102288.38;;;6.70;96.71
24486;BME280;13449;49.374;8.584;2023-02-04T07:56:41;102297.00;;;6.75;96.90
24486;BME280;13449;49.374;8.584;2023-02-04T07:59:10;102306.19;;;6.86;94.85
24486;BME280;13449;49.374;8.584;2023-02-04T08:01:36;102295.81;;;6.91;94.58
24486;BME280;13449;49.374;8.584;2023-02-04T08:04:03;102298.81;;;6.99;93.54
24486;BME280;13449;49.374;8.584;2023-02-04T08:06:30;102299.19;;;7.05;92.77
24486;BME280;13449;49.374;8.584;2023-02-04T08:08:56;102300.44;;;7.12;91.30
24486;BME280;13449;49.374;8.584;2023-02-04T08:11:23;102310.94;;;7.17;90.73
24486;BME280;13449;49.374;8.584;2023-02-04T08:13:49;102310.59;;;7.21;90.19
24486;BME280;13449;49.374;8.584;2023-02-04T08:16:18;102307.38;;;7.27;90.55
24486;BME280;13449;49.374;8.584;2023-02-04T08:18:45;102309.75;;;7.32;89.92
24486;BME280;13449;49.374;8.584;2023-02-04T08:21:11;102311.13;;;7.38;90.10
24486;BME280;13449;49.374;8.584;2023-02-04T08:23:38;102316.31;;;7.41;88.49
24486;BME280;13449;49.374;8.584;2023-02-04T08:26:10;102322.25;;;7.46;87.63
24486;BME280;13449;49.374;8.584;2023-02-04T08:28:39;102315.09;;;7.56;88.89
24486;BME280;13449;49.374;8.584;2023-02-04T08:31:06;102319.56;;;7.68;90.20
24486;BME280;13449;49.374;8.584;2023-02-04T08:33:38;102315.22;;;7.76;88.91
24486;BME280;13449;49.374;8.584;2023-02-04T08:36:08;102320.66;;;7.88;89.33
24486;BME280;13449;49.374;8.584;2023-02-04T08:38:34;102346.84;;;7.89;87.05
24486;BME280;13449;49.374;8.584;2023-02-04T08:41:06;102340.44;;;8.01;87.63
24486;BME280;13449;49.374;8.584;2023-02-04T08:43:39;102337.81;;;8.10;89.14
24486;BME280;13449;49.374;8.584;2023-02-04T08:46:08;102341.91;;;8.16;88.80
24486;BME280;13449;49.374;8.584;2023-02-04T08:48:35;102351.66;;;8.18;88.16
24486;BME280;13449;49.374;8.584;2023-02-04T08:51:04;102340.69;;;8.31;89.86
24486;BME280;13449;49.374;8.584;2023-02-04T08:53:34;102360.03;;;8.26;88.42
24486;BME280;13449;49.374;8.584;2023-02-04T08:56:01;102347.31;;;8.27;88.34
24486;BME280;13449;49.374;8.584;2023-02-04T08:58:29;102358.56;;;8.45;88.16
24486;BME280;13449;49.374;8.584;2023-02-04T09:00:56;102356.34;;;8.50;88.32
24486;BME280;13449;49.374;8.584;2023-02-04T09:03:23;102360.81;;;8.51;85.22
24486;BME280;13449;49.374;8.584;2023-02-04T09:05:49;102355.72;;;8.57;86.52
24486;BME280;13449;49.374;8.584;2023-02-04T09:08:18;102384.63;;;8.58;83.19
24486;BME280;13449;49.374;8.584;2023-02-04T09:10:44;102395.13;;;8.63;81.88
24486;BME280;13449;49.374;8.584;2023-02-04T09:13:13;102393.53;;;8.60;79.39
24486;BME280;13449;49.374;8.584;2023-02-04T09:15:40;102400.94;;;8.58;77.83
24486;BME280;13449;49.374;8.584;2023-02-04T09:18:09;102389.78;;;8.72;79.25
24486;BME280;13449;49.374;8.584;2023-02-04T09:20:44;102386.81;;;8.76;78.65
24486;BME280;13449;49.374;8.584;2023-02-04T09:23:14;102400.75;;;8.82;76.74
24486;BME280;13449;49.374;8.584;2023-02-04T09:25:43;102388.53;;;8.88;77.63
24486;BME280;13449;49.374;8.584;2023-02-04T09:28:13;102387.66;;;8.87;76.57
24486;BME280;13449;49.374;8.584;2023-02-04T09:30:43;102401.91;;;8.68;75.83
24486;BME280;13449;49.374;8.584;2023-02-04T09:33:16;102402.63;;;8.70;76.05
24486;BME280;13449;49.374;8.584;2023-02-04T09:35:43;102421.44;;;8.51;74.48
24486;BME280;13449;49.374;8.584;2023-02-04T09:38:10;102409.56;;;8.63;75.03
24486;BME280;13449;49.374;8.584;2023-02-04T09:40:49;102410.72;;;8.50;74.71
24486;BME280;13449;49.374;8.584;2023-02-04T09:43:21;102388.06;;;8.71;76.65
24486;BME280;13449;49.374;8.584;2023-02-04T09:45:51;102393.84;;;8.78;76.45
24486;BME280;13449;49.374;8.584;2023-02-04T09:48:21;102397.66;;;8.87;75.91
24486;BME280;13449;49.374;8.584;2023-02-04T09:50:49;102416.72;;;8.87;74.97
24486;BME280;13449;49.374;8.584;2023-02-04T09:53:20;102399.25;;;8.89;74.98
24486;BME280;13449;49.374;8.584;2023-02-04T09:55:49;102418.06;;;8.92;74.06
24486;BME280;13449;49.374;8.584;2023-02-04T09:58:18;102424.34;;;8.93;73.78
24486;BME280;13449;49.374;8.584;2023-02-04T10:00:51;102415.34;;;8.81;74.40
24486;BME280;13449;49.374;8.584;2023-02-04T10:03:30;102425.50;;;8.79;74.36
24486;BME280;13449;49.374;8.584;2023-02-04T10:05:59;102416.56;;;8.99;75.00
24486;BME280;13449;49.374;8.584;2023-02-04T10:08:30;102459.50;;;9.28;72.36
24486;BME280;13449;49.374;8.584;2023-02-04T10:11:23;102464.50;;;9.11;70.88
24486;BME280;13449;49.374;8.584;2023-02-04T10:14:11;102456.78;;;9.28;71.79
24486;BME280;13449;49.374;8.584;2023-02-04T10:16:39;102451.66;;;9.34;71.09
24486;BME280;13449;49.374;8.584;2023-02-04T10:19:13;102472.59;;;9.34;69.44
24486;BME280;13449;49.374;8.584;2023-02-04T10:21:46;102465.84;;;9.17;69.17
24486;BME280;13449;49.374;8.584;2023-02-04T10:24:19;102463.09;;;9.28;68.30
24486;BME280;13449;49.374;8.584;2023-02-04T10:26:47;102472.59;;;9.34;68.42
24486;BME280;13449;49.374;8.584;2023-02-04T10:29:23;102464.72;;;9.19;68.64
24486;BME280;13449;49.374;8.584;2023-02-04T10:31:51;102453.34;;;9.26;69.44
24486;BME280;13449;49.374;8.584;2023-02-04T10:34:38;102473.22;;;9.37;67.83
24486;BME280;13449;49.374;8.584;2023-02-04T10:37:19;102471.00;;;9.31;68.63
24486;BME280;13449;49.374;8.584;2023-02-04T10:39:46;102448.41;;;9.51;69.80
24486;BME280;13449;49.374;8.584;2023-02-04T10:42:26;102483.84;;;9.40;68.24
24486;BME280;13449;49.374;8.584;2023-02-04T10:44:54;102464.00;;;9.49;68.96
24486;BME280;13449;49.374;8.584;2023-02-04T10:47:25;102481.53;;;9.56;67.87
24486;BME280;13449;49.374;8.584;2023-02-04T10:50:04;102492.03;;;9.40;67.04
24486;BME280;13449;49.374;8.584;2023-02-04T10:52:41;102458.50;;;9.60;67.97
24486;BME280;13449;49.374;8.584;2023-02-04T10:55:19;102464.56;;;9.85;66.92
24486;BME280;13449;49.374;8.584;2023-02-04T10:57:51;102448.75;;;9.99;67.95
24486;BME280;13449;49.374;8.584;2023-02-04T11:00:24;102489.66;;;10.09;65.28
24486;BME280;13449;49.374;8.584;2023-02-04T11:03:04;102532.03;;;9.92;61.95
24486;BME280;13449;49.374;8.584;2023-02-04T11:05:34;102536.13;;;9.87;61.45
24486;BME280;13449;49.374;8.584;2023-02-04T11:08:03;102513.59;;;10.05;63.68
24486;BME280;13449;49.374;8.584;2023-02-04T11:10:43;102510.34;;;9.91;63.12
24486;BME280;13449;49.374;8.584;2023-02-04T11:13:26;102483.75;;;9.62;64.59
24486;BME280;13449;49.374;8.584;2023-02-04T11:18:53;102493.94;;;9.49;63.99
24486;BME280;13449;49.374;8.584;2023-02-04T11:24:21;102481.41;;;9.26;64.46
24486;BME280;13449;49.374;8.584;2023-02-04T11:27:23;102459.63;;;9.26;65.67
24486;BME280;13449;49.374;8.584;2023-02-04T11:29:50;102463.09;;;9.28;65.59
24486;BME280;13449;49.374;8.584;2023-02-04T11:32:30;102465.44;;;9.33;65.32
24486;BME280;13449;49.374;8.584;2023-02-04T11:35:21;102458.47;;;9.40;65.29
24486;BME280;13449;49.374;8.584;2023-02-04T11:37:48;102454.88;;;9.39;65.65
24486;BME280;13449;49.374;8.584;2023-02-04T11:40:29;102464.41;;;9.34;64.61
24486;BME280;13449;49.374;8.584;2023-02-04T11:43:03;102474.16;;;9.47;64.22
24486;BME280;13449;49.374;8.584;2023-02-04T11:45:35;102474.44;;;9.44;64.46
24486;BME280;13449;49.374;8.584;2023-02-04T11:48:14;102481.81;;;9.53;64.67
24486;BME280;13449;49.374;8.584;2023-02-04T11:51:00;102497.47;;;9.40;63.83
24486;BME280;13449;49.374;8.584;2023-02-04T11:53:30;102468.13;;;9.44;65.53
24486;BME280;13449;49.374;8.584;2023-02-04T11:55:58;102478.81;;;9.25;64.70
24486;BME280;13449;49.374;8.584;2023-02-04T11:58:30;102464.41;;;9.34;65.46
24486;BME280;13449;49.374;8.584;2023-02-04T12:00:59;102476.94;;;9.36;63.14
24486;BME280;13449;49.374;8.584;2023-02-04T12:03:30;102468.13;;;9.44;65.02
24486;BME280;13449;49.374;8.584;2023-02-04T12:06:04;102493.72;;;9.41;63.00
24486;BME280;13449;49.374;8.584;2023-02-04T12:08:34;102538.06;;;9.32;60.38
24486;BME280;13449;49.374;8.584;2023-02-04T12:11:11;102524.28;;;9.45;61.42
24486;BME280;13449;49.374;8.584;2023-02-04T12:13:47;102485.50;;;9.63;63.60
24486;BME280;13449;49.374;8.584;2023-02-04T12:16:15;102576.13;;;9.54;57.76
24486;BME280;13449;49.374;8.584;2023-02-04T12:18:47;102538.09;;;9.64;60.45
24486;BME280;13449;49.374;8.584;2023-02-04T12:21:17;102611.03;;;9.60;55.37
24486;BME280;13449;49.374;8.584;2023-02-04T12:23:50;102625.69;;;9.48;53.94
24486;BME280;13449;49.374;8.584;2023-02-04T12:26:17;102635.31;;;9.52;53.72
24486;BME280;13449;49.374;8.584;2023-02-04T12:28:52;102627.66;;;9.46;54.51
24486;BME280;13449;49.374;8.584;2023-02-04T12:31:21;102625.69;;;9.48;54.85
24486;BME280;13449;49.374;8.584;2023-02-04T12:33:53;102600.78;;;9.42;54.78
24486;BME280;13449;49.374;8.584;2023-02-04T12:36:20;102594.06;;;9.57;56.42
24486;BME280;13449;49.374;8.584;2023-02-04T12:38:49;102603.97;;;9.58;55.41
24486;BME280;13449;49.374;8.584;2023-02-04T12:41:21;102600.13;;;9.60;56.16
24486;BME280;13449;49.374;8.584;2023-02-04T12:43:48;102558.66;;;9.57;57.39
24486;BME280;13449;49.374;8.584;2023-02-04T12:46:23;102550.59;;;9.66;57.78
24486;BME280;13449;49.374;8.584;2023-02-04T12:48:50;102576.75;;;9.58;55.26
24486;BME280;13449;49.374;8.584;2023-02-04T12:51:17;102549.88;;;9.53;57.88
24486;BME280;13449;49.374;8.584;2023-02-04T12:53:47;102529.19;;;9.62;58.76
24486;BME280;13449;49.374;8.584;2023-02-04T12:56:15;102564.69;;;9.71;56.09
24486;BME280;13449;49.374;8.584;2023-02-04T12:58:41;102560.25;;;9.70;57.96
24486;BME280;13449;49.374;8.584;2023-02-04T13:01:10;102557.81;;;9.88;56.60
24486;BME280;13449;49.374;8.584;2023-02-04T13:03:37;102569.00;;;10.06;56.88
24486;BME280;13449;49.374;8.584;2023-02-04T13:06:04;102617.59;;;10.01;53.83
24486;BME280;13449;49.374;8.584;2023-02-04T13:08:30;102604.03;;;10.22;54.58
24486;BME280;13449;49.374;8.584;2023-02-04T13:10:57;102640.34;;;10.22;52.40
24486;BME280;13449;49.374;8.584;2023-02-04T13:13:26;102659.44;;;10.11;52.29
24486;BME280;13449;49.374;8.584;2023-02-04T13:15:53;102681.25;;;10.11;51.28
24486;BME280;13449;49.374;8.584;2023-02-04T13:18:20;102650.50;;;10.09;53.20